Time;durP1;ratioP1;P1;durP2;ratioP2;P2;SDS_P1;SDS_P2;PMS_P1;PMS_P2;Temp;Humidity;BMP_temperature;BMP_pressure;BME280_temperature;BME280_humidity;BME280_pressure;Samples;Min_cycle;Max_cycle;Signal;HPM_P1;HPM_P2
2022/03/24 00:00:11;;;;;;;0.60;0.60;;;8.50;41.80;;;7.38;28.58;95889.50;5000063;28;20224;-84
2022/03/24 00:02:38;;;;;;;0.52;0.52;;;8.30;42.30;;;7.32;28.94;95887.50;5012219;28;20280;-84
2022/03/24 00:05:07;;;;;;;0.52;0.52;;;8.30;41.80;;;7.25;28.96;95883.81;4996685;28;20225;-84
2022/03/24 00:07:35;;;;;;;0.55;0.55;;;8.30;41.80;;;7.10;28.73;95873.06;5022279;28;20201;-85
2022/03/24 00:10:03;;;;;;;0.60;0.60;;;8.20;41.70;;;7.02;28.85;95876.41;4996180;28;20225;-85
2022/03/24 00:12:30;;;;;;;0.60;0.60;;;8.20;41.60;;;7.02;29.42;95872.00;4991279;28;20611;-84
2022/03/24 00:14:57;;;;;;;0.50;0.50;;;8.10;41.60;;;7.00;29.81;95863.50;5010588;28;20221;-84
2022/03/24 00:17:25;;;;;;;0.55;0.55;;;8.00;41.90;;;7.02;29.27;95848.53;5015717;28;20209;-84
2022/03/24 00:19:52;;;;;;;0.60;0.60;;;8.10;42.00;;;7.31;29.48;95878.84;5032092;28;20752;-85
2022/03/24 00:22:20;;;;;;;0.60;0.60;;;8.10;42.20;;;7.37;29.61;95872.19;4997575;28;20216;-84
2022/03/24 00:24:47;;;;;;;0.80;0.80;;;8.10;42.40;;;7.41;29.14;95875.34;5011759;28;20312;-84
2022/03/24 00:27:15;;;;;;;0.70;0.70;;;8.10;42.30;;;7.37;29.28;95875.66;5031799;28;20201;-85
2022/03/24 00:29:43;;;;;;;0.70;0.70;;;8.20;42.30;;;7.24;29.24;95864.75;5004622;28;20221;-85
2022/03/24 00:32:11;;;;;;;0.60;0.60;;;8.10;42.20;;;7.08;29.05;95856.75;4984221;28;20296;-84
2022/03/24 00:34:38;;;;;;;0.50;0.50;;;8.20;42.20;;;7.02;29.33;95866.78;5031906;28;20227;-85
2022/03/24 00:37:09;;;;;;;0.70;0.70;;;8.10;42.30;;;6.93;29.62;95866.84;5031843;28;20201;-84
2022/03/24 00:39:40;;;;;;;0.60;0.60;;;8.00;42.20;;;6.65;29.59;95846.81;5014068;28;20320;-84
2022/03/24 00:42:11;;;;;;;0.60;0.60;;;8.00;42.20;;;6.72;30.10;95873.13;4998085;28;20201;-84
2022/03/24 00:44:42;;;;;;;0.60;0.60;;;7.90;42.20;;;6.77;31.01;95868.28;4995108;28;20214;-84
2022/03/24 00:47:13;;;;;;;0.60;0.60;;;7.90;43.00;;;6.91;30.84;95863.56;4996216;28;20197;-85
2022/03/24 00:49:42;;;;;;;0.60;0.60;;;7.80;43.20;;;7.03;31.41;95863.22;4999153;28;20251;-84
2022/03/24 00:52:11;;;;;;;0.60;0.60;;;7.80;43.60;;;7.31;31.18;95870.19;5020137;28;20193;-84
2022/03/24 00:54:38;;;;;;;0.60;0.60;;;7.90;44.00;;;7.48;31.38;95873.78;4995939;28;20225;-84
2022/03/24 00:57:07;;;;;;;0.50;0.50;;;7.90;43.90;;;7.61;31.59;95861.19;4995597;28;20297;-85
2022/03/24 00:59:37;;;;;;;0.60;0.60;;;8.10;44.00;;;7.72;30.70;95861.94;4996195;28;20260;-85
2022/03/24 01:02:09;;;;;;;0.60;0.60;;;8.20;43.80;;;7.78;30.55;95862.13;4998365;28;20836;-85
2022/03/24 01:04:38;;;;;;;0.50;0.50;;;8.30;43.60;;;7.79;29.84;95853.34;5016154;28;20640;-85
2022/03/24 01:07:05;;;;;;;0.60;0.60;;;8.30;43.20;;;7.74;29.94;95852.97;5011796;28;20292;-85
2022/03/24 01:09:32;;;;;;;0.50;0.50;;;8.40;43.00;;;7.64;30.22;95850.44;4982952;28;20472;-85
2022/03/24 01:12:02;;;;;;;0.80;0.80;;;8.40;42.90;;;7.50;29.67;95837.91;5013344;28;20201;-85
2022/03/24 01:14:32;;;;;;;0.70;0.70;;;8.40;42.80;;;7.45;29.79;95842.78;5009511;28;20312;-84
2022/03/24 01:17:01;;;;;;;0.50;0.50;;;8.40;42.70;;;7.27;30.07;95829.72;5018798;28;20209;-85
2022/03/24 01:19:28;;;;;;;0.70;0.70;;;8.30;42.60;;;7.30;29.85;95845.06;5035254;28;20229;-84
2022/03/24 01:21:55;;;;;;;0.60;0.60;;;8.30;42.60;;;7.20;29.96;95842.50;5018416;28;20517;-85
2022/03/24 01:24:22;;;;;;;0.65;0.65;;;8.30;42.80;;;7.13;30.01;95837.06;5019338;28;20623;-85
2022/03/24 01:26:49;;;;;;;0.50;0.50;;;8.20;42.80;;;7.08;30.22;95838.47;5010667;28;20205;-84
2022/03/24 01:29:19;;;;;;;0.60;0.60;;;8.10;42.70;;;7.05;30.06;95844.81;5015797;28;20268;-84
2022/03/24 01:31:48;;;;;;;0.60;0.60;;;8.00;42.70;;;7.02;30.49;95837.28;4999240;28;20251;-85
2022/03/24 01:34:16;;;;;;;0.50;0.50;;;8.00;43.00;;;6.99;30.66;95829.75;5029737;28;20280;-85
2022/03/24 01:36:43;;;;;;;0.60;0.60;;;8.00;43.20;;;7.02;30.57;95835.50;4985948;28;20228;-85
2022/03/24 01:39:11;;;;;;;0.60;0.60;;;8.00;43.40;;;7.04;31.04;95832.72;5018697;28;20220;-84
2022/03/24 01:41:40;;;;;;;0.60;0.60;;;8.00;43.90;;;7.15;31.16;95842.97;5011185;28;20220;-84
2022/03/24 01:44:17;;;;;;;0.60;0.60;;;8.00;44.10;;;7.16;31.28;95834.16;5015372;28;20213;-86
2022/03/24 01:46:58;;;;;;;0.60;0.60;;;8.00;44.40;;;7.10;31.35;95818.28;5015749;28;20197;-84
2022/03/24 01:49:29;;;;;;;0.60;0.60;;;8.00;44.40;;;7.11;30.73;95825.97;5031690;28;20225;-84
2022/03/24 01:51:57;;;;;;;0.60;0.60;;;8.00;43.90;;;6.98;30.73;95818.50;5021144;28;20196;-85
2022/03/24 01:54:31;;;;;;;0.70;0.70;;;8.00;43.80;;;6.98;30.60;95831.56;5031290;28;20213;-85
2022/03/24 01:56:59;;;;;;;0.60;0.60;;;7.90;43.60;;;6.92;30.39;95834.75;5006715;28;20200;-84
2022/03/24 01:59:27;;;;;;;0.60;0.60;;;7.90;43.60;;;6.84;30.69;95835.44;4998703;28;20228;-85
2022/03/24 02:01:54;;;;;;;0.60;0.60;;;7.80;43.50;;;6.77;30.90;95831.78;5011669;28;20197;-84
2022/03/24 02:04:22;;;;;;;0.60;0.60;;;7.80;43.60;;;6.71;30.94;95830.59;5015426;28;20321;-84
2022/03/24 02:06:49;;;;;;;0.60;0.60;;;7.70;43.50;;;6.68;31.12;95822.25;5018079;28;20685;-84
2022/03/24 02:09:16;;;;;;;0.60;0.60;;;7.70;43.80;;;6.64;31.09;95813.88;5018432;28;20227;-85
2022/03/24 02:11:44;;;;;;;0.60;0.60;;;7.60;43.90;;;6.69;31.51;95816.88;5016387;28;20280;-85
2022/03/24 02:14:14;;;;;;;0.80;0.80;;;7.60;44.00;;;6.70;32.82;95820.28;4982782;28;20217;-84
2022/03/24 02:16:41;;;;;;;0.55;0.55;;;7.60;44.80;;;6.65;32.57;95799.91;4982210;28;20209;-84
2022/03/24 02:19:20;;;;;;;0.50;0.50;;;7.60;45.20;;;6.84;32.81;95814.59;5014742;28;20217;-84
2022/03/24 02:21:56;;;;;;;0.60;0.60;;;7.60;45.60;;;6.87;32.30;95816.09;4998403;28;20243;-84
2022/03/24 02:24:25;;;;;;;0.52;0.52;;;7.70;45.90;;;6.95;32.41;95829.22;5011635;28;20606;-85
2022/03/24 02:26:54;;;;;;;0.60;0.60;;;7.70;45.20;;;6.94;32.22;95830.19;5017662;28;20288;-85
2022/03/24 02:29:25;;;;;;;0.60;0.60;;;7.70;45.00;;;6.99;31.87;95830.56;5018237;28;20238;-85
2022/03/24 02:31:53;;;;;;;0.60;0.60;;;7.70;44.80;;;7.00;31.57;95824.38;5008350;28;20198;-84
2022/03/24 02:34:37;;;;;;;0.60;0.60;;;7.70;44.70;;;6.98;31.64;95823.72;5015048;28;20571;-85
2022/03/24 02:37:10;;;;;;;0.60;0.60;;;7.80;44.60;;;6.97;31.83;95829.91;5032834;28;20216;-85
2022/03/24 02:39:50;;;;;;;0.80;0.80;;;7.80;44.80;;;6.92;31.57;95819.09;5014383;28;20315;-84
2022/03/24 02:42:25;;;;;;;0.60;0.60;;;7.80;44.80;;;6.92;31.53;95823.47;5000381;28;20196;-85
2022/03/24 02:45:05;;;;;;;0.70;0.70;;;7.80;44.80;;;6.81;31.68;95814.91;5015715;28;20614;-84
2022/03/24 02:47:33;;;;;;;0.60;0.60;;;7.80;46.00;;;6.82;31.53;95824.38;5033923;28;20181;-84
2022/03/24 02:50:01;;;;;;;0.70;0.70;;;7.70;44.40;;;6.76;31.80;95827.53;5009738;28;20227;-85
2022/03/24 02:52:28;;;;;;;0.63;0.63;;;7.70;44.70;;;6.69;31.59;95824.69;4987890;28;20210;-85
2022/03/24 02:54:55;;;;;;;0.70;0.70;;;7.70;44.80;;;6.58;31.49;95814.47;5024616;28;20695;-84
2022/03/24 02:57:22;;;;;;;0.70;0.70;;;7.60;44.50;;;6.55;31.49;95833.00;5013702;28;20197;-84
2022/03/24 02:59:49;;;;;;;0.60;0.60;;;7.60;44.80;;;6.53;33.39;95829.69;5017103;28;20500;-84
2022/03/24 03:02:18;;;;;;;0.57;0.57;;;7.60;46.10;;;6.54;35.03;95834.78;5024310;28;20550;-85
2022/03/24 03:04:53;;;;;;;0.57;0.57;;;7.50;47.10;;;6.62;35.14;95828.03;5013529;28;20566;-84
2022/03/24 03:07:21;;;;;;;0.60;0.60;;;7.50;47.60;;;6.70;34.76;95822.91;5031288;28;20288;-85
2022/03/24 03:09:49;;;;;;;0.60;0.60;;;7.50;48.80;;;6.75;35.18;95820.69;5000667;28;20221;-84
2022/03/24 03:12:17;;;;;;;0.60;0.60;;;7.50;47.90;;;6.78;35.02;95814.38;4998290;28;20209;-84
2022/03/24 03:14:48;;;;;;;0.60;0.60;;;7.50;47.90;;;6.77;35.06;95821.34;4997460;28;20638;-85
2022/03/24 03:17:16;;;;;;;0.60;0.60;;;7.50;48.00;;;6.88;35.24;95825.56;4997973;28;20575;-85
2022/03/24 03:19:45;;;;;;;0.60;0.60;;;7.60;48.30;;;6.92;35.14;95834.75;4998726;28;20217;-84
2022/03/24 03:22:14;;;;;;;0.60;0.60;;;7.60;48.20;;;6.94;35.47;95839.81;5007445;28;20205;-85
2022/03/24 03:24:41;;;;;;;0.70;0.70;;;7.60;48.30;;;6.97;35.21;95837.72;4997176;28;20225;-84
2022/03/24 03:27:08;;;;;;;0.70;0.70;;;7.70;48.20;;;6.96;34.45;95832.66;4997108;28;20260;-85
2022/03/24 03:29:35;;;;;;;0.60;0.60;;;7.70;48.00;;;7.00;34.48;95842.63;5025624;28;20307;-84
2022/03/24 03:32:04;;;;;;;0.77;0.77;;;7.70;47.80;;;7.02;34.16;95845.13;5017002;28;20200;-84
2022/03/24 03:34:31;;;;;;;0.60;0.60;;;7.70;47.60;;;7.01;34.04;95838.25;5016556;28;20324;-84
2022/03/24 03:37:01;;;;;;;0.60;0.60;;;7.80;48.70;;;6.94;34.16;95834.59;5033152;28;20568;-85
2022/03/24 03:39:28;;;;;;;0.70;0.70;;;7.80;47.30;;;6.94;33.77;95845.03;4996313;28;20221;-84
2022/03/24 03:41:57;;;;;;;0.70;0.70;;;7.80;47.20;;;6.87;33.76;95843.00;5012473;28;20229;-84
2022/03/24 03:44:25;;;;;;;0.80;0.80;;;7.80;47.20;;;6.83;34.11;95848.66;4996846;28;20724;-84
2022/03/24 03:46:52;;;;;;;0.70;0.70;;;7.70;47.20;;;6.75;33.70;95845.94;4996600;28;20207;-84
2022/03/24 03:49:23;;;;;;;0.60;0.60;;;7.70;47.00;;;6.65;33.46;95854.63;5004990;28;20224;-84
2022/03/24 03:52:11;;;;;;;0.80;0.80;;;7.70;46.80;;;6.51;33.30;95845.47;5019528;28;20201;-84
2022/03/24 03:54:38;;;;;;;0.52;0.52;;;7.60;46.50;;;6.39;33.47;95844.03;5032863;28;20221;-84
2022/03/24 03:57:05;;;;;;;0.80;0.80;;;7.50;46.50;;;6.32;33.61;95841.16;5015630;28;20200;-84
2022/03/24 03:59:33;;;;;;;0.50;0.50;;;7.40;46.60;;;6.21;35.66;95839.56;5013525;28;20296;-84
2022/03/24 04:02:00;;;;;;;0.60;0.60;;;7.40;48.00;;;6.18;36.56;95839.03;5032232;28;20689;-84
2022/03/24 04:04:27;;;;;;;0.60;0.60;;;7.30;48.90;;;6.20;36.67;95840.53;5016117;28;20217;-84
2022/03/24 04:06:54;;;;;;;0.70;0.70;;;7.20;49.30;;;6.13;36.68;95820.38;5032054;28;20659;-85
2022/03/24 04:09:21;;;;;;;0.60;0.60;;;7.20;49.50;;;6.22;36.91;95833.38;5020437;28;20220;-86
2022/03/24 04:11:48;;;;;;;0.60;0.60;;;7.20;49.80;;;6.25;37.14;95837.50;5015539;28;20216;-85
2022/03/24 04:14:16;;;;;;;0.70;0.70;;;7.10;50.10;;;6.27;37.63;95851.19;4999583;28;20227;-85
2022/03/24 04:16:43;;;;;;;0.80;0.80;;;7.10;50.20;;;6.30;37.90;95842.25;5014148;28;20203;-84
2022/03/24 04:19:10;;;;;;;0.70;0.70;;;7.10;50.70;;;6.33;37.51;95834.19;5028368;28;20296;-85
2022/03/24 04:21:38;;;;;;;0.40;0.40;;;7.10;50.70;;;6.37;37.64;95841.56;5012484;28;20286;-84
2022/03/24 04:24:07;;;;;;;0.60;0.60;;;7.10;50.60;;;6.36;37.62;95836.47;5012201;28;20260;-85
2022/03/24 04:26:34;;;;;;;0.80;0.80;;;7.10;50.80;;;6.23;37.89;95822.00;4995962;28;20204;-84
2022/03/24 04:29:01;;;;;;;0.57;0.57;;;7.10;50.80;;;6.36;38.01;95852.94;5020022;28;20769;-85
2022/03/24 04:31:28;;;;;;;0.70;0.70;;;7.10;51.00;;;6.37;38.39;95851.16;5012196;28;20292;-85
2022/03/24 04:33:55;;;;;;;0.50;0.50;;;7.20;51.40;;;6.41;38.26;95848.13;4995990;28;20423;-85
2022/03/24 04:36:22;;;;;;;0.52;0.52;;;7.10;51.70;;;6.49;38.56;95844.78;5028765;28;20285;-86
2022/03/24 04:38:50;;;;;;;0.50;0.50;;;7.20;51.70;;;6.56;38.03;95845.88;5015056;28;20227;-84
2022/03/24 04:41:17;;;;;;;0.70;0.70;;;7.20;51.70;;;6.61;37.91;95842.03;5015876;28;20327;-85
2022/03/24 04:43:44;;;;;;;0.70;0.70;;;7.20;51.60;;;6.66;38.16;95848.44;5031586;28;20224;-85
2022/03/24 04:46:12;;;;;;;0.70;0.70;;;7.30;51.60;;;6.65;37.67;95844.22;5030275;28;20279;-85
2022/03/24 04:48:39;;;;;;;0.65;0.65;;;7.40;51.70;;;6.75;37.75;95843.31;5029033;28;20217;-85
2022/03/24 04:51:06;;;;;;;0.80;0.80;;;7.40;51.50;;;6.73;37.42;95831.25;5015362;28;20291;-86
2022/03/24 04:53:34;;;;;;;0.60;0.60;;;7.40;51.40;;;6.81;37.80;95843.59;5031917;28;20213;-85
2022/03/24 04:56:02;;;;;;;0.52;0.52;;;7.50;51.60;;;6.82;37.68;95847.00;5002315;28;20197;-85
2022/03/24 04:58:29;;;;;;;0.60;0.60;;;7.50;51.40;;;6.83;37.77;95854.66;5015442;28;20250;-84
2022/03/24 05:00:58;;;;;;;0.60;0.60;;;7.50;51.60;;;6.83;37.47;95846.03;5010698;28;20223;-84
2022/03/24 05:03:26;;;;;;;0.70;0.70;;;7.50;51.50;;;6.86;37.90;95850.94;5011962;28;20706;-85
2022/03/24 05:05:54;;;;;;;0.80;0.80;;;7.60;51.50;;;6.85;37.40;95841.50;4997704;28;20198;-85
2022/03/24 05:08:21;;;;;;;0.70;0.70;;;7.50;51.40;;;6.92;37.76;95852.16;4996014;28;20263;-85
2022/03/24 05:10:48;;;;;;;0.80;0.80;;;7.60;51.60;;;6.89;37.80;95841.03;4982654;28;20200;-85
2022/03/24 05:13:15;;;;;;;0.60;0.60;;;7.60;51.50;;;6.98;37.58;95849.81;4997032;28;20287;-85
2022/03/24 05:15:43;;;;;;;0.60;0.60;;;7.60;51.60;;;7.03;37.64;95844.13;5011962;28;20216;-85
2022/03/24 05:18:10;;;;;;;0.70;0.70;;;7.70;51.70;;;7.06;37.52;95849.06;5011878;28;20647;-86
2022/03/24 05:20:38;;;;;;;0.60;0.60;;;7.70;51.40;;;7.07;37.22;95845.50;5002256;28;20263;-85
2022/03/24 05:23:08;;;;;;;0.60;0.60;;;7.70;51.30;;;7.11;36.96;95846.03;5004019;28;20220;-85
2022/03/24 05:25:35;;;;;;;0.60;0.60;;;7.70;52.20;;;7.16;37.03;95855.03;5030438;28;20197;-85
2022/03/24 05:28:04;;;;;;;0.70;0.70;;;7.80;51.00;;;7.20;36.70;95871.22;4995622;28;20198;-85
2022/03/24 05:30:31;;;;;;;0.60;0.60;;;7.80;50.80;;;7.21;36.74;95868.47;4996197;28;20285;-84
2022/03/24 05:32:58;;;;;;;0.70;0.70;;;7.80;50.60;;;7.20;36.31;95873.81;5011415;28;20205;-85
2022/03/24 05:35:25;;;;;;;0.50;0.50;;;7.90;50.40;;;7.19;36.56;95869.59;5011679;28;20221;-85
2022/03/24 05:37:53;;;;;;;0.70;0.70;;;7.90;50.30;;;7.18;36.35;95862.72;5011775;28;20232;-85
2022/03/24 05:40:21;;;;;;;0.60;0.60;;;7.90;50.10;;;7.18;36.12;95862.72;4996018;28;20264;-85
2022/03/24 05:42:48;;;;;;;0.60;0.60;;;7.90;50.10;;;7.16;35.70;95868.06;5016516;28;20206;-85
2022/03/24 05:45:15;;;;;;;0.50;0.50;;;7.90;50.00;;;7.16;36.19;95868.06;5029863;28;20212;-84
2022/03/24 05:47:42;;;;;;;0.50;0.50;;;7.90;50.10;;;7.16;36.28;95860.25;5012327;28;20224;-84
2022/03/24 05:50:12;;;;;;;0.50;0.50;;;7.90;50.20;;;7.19;36.13;95859.16;5013854;28;20236;-84
2022/03/24 05:52:58;;;;;;;0.52;0.52;;;7.90;50.20;;;7.24;36.31;95867.34;5032208;28;20580;-84
2022/03/24 05:55:25;;;;;;;0.60;0.60;;;7.90;50.40;;;7.31;36.15;95870.19;5015597;28;20757;-84
2022/03/24 05:57:52;;;;;;;0.55;0.55;;;7.90;50.30;;;7.35;36.29;95868.94;5018146;28;20643;-84
2022/03/24 06:00:20;;;;;;;0.50;0.50;;;7.90;50.40;;;7.33;36.13;95861.25;5034379;28;20217;-84
2022/03/24 06:02:47;;;;;;;0.60;0.60;;;8.00;50.40;;;7.47;35.88;95859.91;5017924;28;20244;-85
2022/03/24 06:05:15;;;;;;;0.60;0.60;;;8.00;50.20;;;7.52;35.97;95865.50;5018157;28;20747;-84
2022/03/24 06:07:42;;;;;;;0.75;0.75;;;8.00;50.10;;;7.58;36.07;95864.09;5018312;28;20204;-85
2022/03/24 06:10:10;;;;;;;0.70;0.70;;;8.10;50.50;;;7.65;35.88;95870.38;5018074;28;20220;-85
2022/03/24 06:12:37;;;;;;;0.60;0.60;;;8.20;50.20;;;7.74;35.82;95859.97;5001912;28;20267;-85
2022/03/24 06:15:05;;;;;;;0.60;0.60;;;8.20;50.30;;;7.83;35.76;95872.13;5034569;28;20699;-85
2022/03/24 06:17:34;;;;;;;0.50;0.50;;;8.30;50.30;;;7.91;35.85;95867.00;5017774;28;20210;-84
2022/03/24 06:20:02;;;;;;;0.70;0.70;;;8.40;50.40;;;8.01;35.91;95864.28;5034411;28;20223;-85
2022/03/24 06:22:30;;;;;;;0.50;0.50;;;8.50;50.40;;;8.12;35.86;95866.66;5034063;28;20231;-84
2022/03/24 06:24:57;;;;;;;0.50;0.50;;;8.50;50.40;;;8.24;35.49;95863.78;5017835;28;20220;-84
2022/03/24 06:27:24;;;;;;;0.68;0.68;;;8.60;50.40;;;8.37;35.69;95865.97;5017442;28;20554;-84
2022/03/24 06:29:52;;;;;;;0.50;0.50;;;8.70;50.40;;;8.49;35.38;95870.84;5017417;28;20220;-84
2022/03/24 06:32:20;;;;;;;0.50;0.50;;;8.80;50.40;;;8.58;35.44;95857.78;5017351;28;20227;-85
2022/03/24 06:34:48;;;;;;;0.50;0.50;;;8.90;50.30;;;8.74;35.03;95875.34;5033814;28;20220;-85
2022/03/24 06:37:16;;;;;;;0.60;0.60;;;9.00;50.20;;;8.81;35.02;95864.13;5017814;28;20197;-85
2022/03/24 06:39:43;;;;;;;0.50;0.50;;;9.10;50.00;;;8.90;34.87;95864.13;5033672;28;20331;-84
2022/03/24 06:42:10;;;;;;;0.50;0.50;;;9.20;49.90;;;9.04;34.97;95881.06;5033319;28;20235;-85
2022/03/24 06:44:38;;;;;;;0.50;0.50;;;9.30;50.00;;;9.11;34.90;95871.59;5017310;28;20686;-84
2022/03/24 06:47:05;;;;;;;0.50;0.50;;;9.40;50.10;;;9.18;34.69;95874.38;5017681;28;20220;-85
2022/03/24 06:49:33;;;;;;;0.60;0.60;;;9.50;50.00;;;9.29;34.81;95872.28;5017291;28;20233;-84
2022/03/24 06:52:00;;;;;;;0.50;0.50;;;9.60;49.90;;;9.39;34.79;95872.16;5017056;28;20605;-85
2022/03/24 06:54:27;;;;;;;0.50;0.50;;;9.70;49.90;;;9.47;34.71;95870.53;5017186;28;20224;-85
2022/03/24 06:56:54;;;;;;;0.60;0.60;;;9.70;49.80;;;9.56;34.57;95875.63;5017123;28;20197;-85
2022/03/24 06:59:21;;;;;;;0.50;0.50;;;9.80;49.80;;;9.63;34.52;95864.50;5033366;28;20274;-85
2022/03/24 07:01:49;;;;;;;0.50;0.50;;;9.90;49.90;;;9.75;34.53;95866.66;5016433;28;20228;-84
2022/03/24 07:04:18;;;;;;;0.60;0.60;;;10.00;47.90;;;9.81;34.66;95861.72;5017041;28;20315;-85
2022/03/24 07:06:45;;;;;;;0.50;0.50;;;10.10;47.90;;;9.94;34.56;95870.72;5016538;28;20718;-85
2022/03/24 07:09:13;;;;;;;0.50;0.50;;;10.20;48.00;;;10.05;34.41;95866.16;5016853;28;20221;-84
2022/03/24 07:11:40;;;;;;;0.50;0.50;;;10.30;48.00;;;10.16;34.14;95867.63;5016859;28;20587;-84
2022/03/24 07:14:07;;;;;;;0.50;0.50;;;10.40;48.00;;;10.26;34.11;95876.13;5016836;28;20765;-83
2022/03/24 07:16:34;;;;;;;0.60;0.60;;;10.40;47.80;;;10.25;33.91;95862.22;5032962;28;20224;-86
2022/03/24 07:19:03;;;;;;;0.47;0.47;;;10.50;47.80;;;10.48;33.68;95879.88;5014045;28;20213;-86
2022/03/24 07:21:30;;;;;;;0.60;0.60;;;10.60;47.70;;;10.59;33.84;95875.28;5009617;28;20221;-85
2022/03/24 07:23:57;;;;;;;0.40;0.40;;;10.70;47.80;;;10.69;33.72;95884.63;5005990;28;20676;-84
2022/03/24 07:26:24;;;;;;;0.60;0.60;;;10.80;47.70;;;10.82;33.51;95880.63;4991777;28;20189;-85
2022/03/24 07:28:52;;;;;;;0.50;0.50;;;10.90;47.60;;;10.79;33.72;95866.03;5002648;28;20686;-86
2022/03/24 07:31:20;;;;;;;0.70;0.70;;;11.00;47.50;;;11.03;33.66;95880.06;5000942;28;20193;-86
2022/03/24 07:33:48;;;;;;;0.60;0.60;;;11.10;47.50;;;11.15;33.73;95885.75;5014636;28;20311;-85
2022/03/24 07:36:20;;;;;;;0.70;0.70;;;11.20;47.40;;;11.28;33.51;95882.56;5011545;28;20200;-85
2022/03/24 07:38:51;;;;;;;0.60;0.60;;;11.40;47.60;;;11.29;32.85;95871.06;4981222;28;20607;-85
2022/03/24 07:41:18;;;;;;;0.50;0.50;;;11.40;47.30;;;11.39;32.99;95876.94;5012445;28;20649;-85
2022/03/24 07:43:45;;;;;;;0.50;0.50;;;11.50;47.10;;;11.54;33.00;95882.25;5012950;28;21537;-84
2022/03/24 07:46:13;;;;;;;0.60;0.60;;;11.60;47.10;;;11.52;33.08;95861.44;5005233;28;20192;-85
2022/03/24 07:48:46;;;;;;;0.50;0.50;;;11.70;47.00;;;11.78;32.99;95888.34;5032335;28;20208;-84
2022/03/24 07:51:13;;;;;;;0.50;0.50;;;11.90;47.30;;;11.87;32.86;95889.94;4997533;28;20200;-85
2022/03/24 07:53:55;;;;;;;0.50;0.50;;;11.90;46.90;;;11.84;32.70;95867.44;4996469;28;20216;-86
2022/03/24 07:56:26;;;;;;;0.60;0.60;;;12.00;46.70;;;12.07;32.89;95882.41;5016674;28;20215;-84
2022/03/24 07:58:54;;;;;;;0.50;0.50;;;12.10;46.80;;;12.20;32.47;95883.63;5046833;28;20299;-85
2022/03/24 08:01:32;;;;;;;0.60;0.60;;;12.20;46.80;;;12.30;32.17;95881.56;5019534;28;20216;-85
2022/03/24 08:04:03;;;;;;;0.50;0.50;;;12.40;46.70;;;12.41;32.26;95882.94;5030139;28;20636;-85
2022/03/24 08:06:32;;;;;;;0.65;0.65;;;12.40;46.60;;;12.51;32.42;95883.47;4998600;28;20200;-85
2022/03/24 08:09:00;;;;;;;0.60;0.60;;;12.50;46.70;;;12.62;32.13;95879.59;5014316;28;20228;-84
2022/03/24 08:11:27;;;;;;;0.50;0.50;;;12.60;46.70;;;12.62;32.13;95880.44;5010794;28;20263;-86
2022/03/24 08:13:56;;;;;;;0.60;0.60;;;12.70;46.60;;;12.79;32.05;95886.34;5004973;28;20493;-85
2022/03/24 08:16:24;;;;;;;0.50;0.50;;;12.80;46.60;;;12.90;31.73;95877.16;4995491;28;20281;-85
2022/03/24 08:18:53;;;;;;;0.50;0.50;;;12.90;46.40;;;12.95;32.19;95882.69;5009505;28;20251;-85
2022/03/24 08:21:21;;;;;;;0.60;0.60;;;13.00;46.50;;;13.14;31.78;95888.41;5008948;28;20220;-85
2022/03/24 08:23:48;;;;;;;0.50;0.50;;;13.10;46.40;;;13.15;32.00;95874.22;5003057;28;20266;-84
2022/03/24 08:26:15;;;;;;;0.57;0.57;;;13.20;46.50;;;13.34;31.52;95888.66;5001787;28;20657;-84
2022/03/24 08:28:42;;;;;;;0.50;0.50;;;13.30;46.20;;;13.42;31.69;95893.03;5015225;28;20226;-84
2022/03/24 08:31:09;;;;;;;0.50;0.50;;;13.40;46.30;;;13.56;31.50;95889.53;5015590;28;20654;-84
2022/03/24 08:33:37;;;;;;;0.57;0.57;;;13.50;46.20;;;13.63;31.39;95884.31;5018351;28;20216;-85
2022/03/24 08:36:04;;;;;;;0.50;0.50;;;13.60;46.20;;;13.65;31.26;95869.16;5000605;28;20287;-85
2022/03/24 08:38:31;;;;;;;0.50;0.50;;;13.70;46.20;;;13.87;31.40;95888.41;4997189;28;20311;-85
2022/03/24 08:40:58;;;;;;;0.50;0.50;;;13.80;46.30;;;14.02;31.21;95884.91;5000887;28;20284;-86
2022/03/24 08:43:25;;;;;;;0.50;0.50;;;13.80;46.10;;;14.13;31.06;95883.59;5015041;28;20656;-84
2022/03/24 08:45:52;;;;;;;0.70;0.70;;;14.00;46.10;;;14.17;31.19;95875.09;5016168;28;20577;-85
2022/03/24 08:48:20;;;;;;;0.50;0.50;;;14.10;45.90;;;14.35;30.82;95887.00;5008876;28;20302;-85
2022/03/24 08:50:47;;;;;;;0.50;0.50;;;14.20;45.80;;;14.41;30.93;95871.25;5000731;28;20299;-85
2022/03/24 08:53:14;;;;;;;0.50;0.50;;;14.30;45.80;;;14.62;30.68;95895.13;4991420;28;20204;-85
2022/03/24 08:55:43;;;;;;;0.70;0.70;;;14.40;45.60;;;14.64;30.80;95872.00;5008047;28;20295;-85
2022/03/24 08:58:12;;;;;;;0.70;0.70;;;14.50;45.50;;;14.85;30.60;95887.78;5011325;28;20235;-85
2022/03/24 09:00:39;;;;;;;0.52;0.52;;;14.60;45.50;;;14.93;30.46;95886.00;4999059;28;20534;-84
2022/03/24 09:03:07;;;;;;;0.50;0.50;;;14.80;45.40;;;15.09;30.43;95890.97;4992163;28;20224;-86
2022/03/24 09:05:36;;;;;;;0.68;0.68;;;14.80;45.20;;;15.21;30.38;95885.94;5006704;28;20192;-85
2022/03/24 09:08:04;;;;;;;0.60;0.60;;;14.90;45.20;;;15.32;30.12;95890.66;5020047;28;20649;-86
2022/03/24 09:10:32;;;;;;;0.60;0.60;;;15.10;45.10;;;15.34;30.05;95877.25;5005364;28;20194;-85
2022/03/24 09:12:59;;;;;;;0.50;0.50;;;15.20;44.70;;;15.56;29.43;95880.56;5016977;28;20258;-86
2022/03/24 09:15:26;;;;;;;0.60;0.60;;;15.30;44.10;;;15.65;29.48;95884.66;5000381;28;20219;-85
2022/03/24 09:17:54;;;;;;;0.50;0.50;;;15.40;44.30;;;15.76;29.32;95890.38;5015629;28;20200;-83
2022/03/24 09:20:23;;;;;;;0.50;0.50;;;15.50;44.20;;;15.87;28.91;95886.34;5002577;28;20259;-86
2022/03/24 09:22:50;;;;;;;0.40;0.40;;;15.60;43.90;;;15.88;29.27;95886.19;4994800;28;20294;-82
2022/03/24 09:25:21;;;;;;;0.70;0.70;;;15.70;44.40;;;16.05;29.35;95891.91;5000760;28;20218;-84
2022/03/24 09:27:48;;;;;;;0.50;0.50;;;15.80;44.50;;;16.13;28.70;95886.41;5014936;28;20200;-85
2022/03/24 09:30:18;;;;;;;0.60;0.60;;;15.90;43.40;;;16.22;28.58;95897.63;5034257;28;20295;-85
2022/03/24 09:32:47;;;;;;;0.60;0.60;;;16.00;43.70;;;16.29;28.46;95884.38;4998952;28;20207;-84
2022/03/24 09:35:16;;;;;;;0.45;0.45;;;16.00;43.20;;;16.40;28.19;95886.41;5020110;28;20307;-87
2022/03/24 09:37:44;;;;;;;0.50;0.50;;;16.10;42.80;;;16.48;28.47;95883.56;5035147;28;20199;-85
2022/03/24 09:40:12;;;;;;;0.63;0.63;;;16.20;43.20;;;16.59;28.41;95891.91;5023222;28;20217;-85
2022/03/24 09:42:41;;;;;;;0.40;0.40;;;16.30;43.00;;;16.58;27.77;95869.09;5006002;28;20236;-85
2022/03/24 09:45:11;;;;;;;0.50;0.50;;;16.40;42.70;;;16.78;28.02;95893.72;5017227;28;20219;-85
2022/03/24 09:47:40;;;;;;;0.40;0.40;;;16.50;42.90;;;16.91;27.86;95894.72;5009669;28;20216;-83
2022/03/24 09:50:10;;;;;;;0.47;0.47;;;16.50;42.70;;;16.94;27.83;95875.75;5001379;28;20220;-86
2022/03/24 09:52:38;;;;;;;0.60;0.60;;;16.70;42.70;;;17.10;27.18;95893.03;4989913;28;20199;-84
2022/03/24 09:55:08;;;;;;;0.50;0.50;;;16.80;41.80;;;17.15;27.26;95890.59;5009362;28;20227;-85
2022/03/24 09:57:37;;;;;;;0.57;0.57;;;16.80;41.40;;;17.21;27.26;95891.59;5001815;28;20201;-85
2022/03/24 10:00:24;;;;;;;0.50;0.50;;;16.90;41.80;;;17.24;26.98;95881.38;5013964;28;20219;-85
2022/03/24 10:03:10;;;;;;;0.45;0.45;;;17.00;41.80;;;17.32;27.37;95896.25;5021021;28;20263;-85
2022/03/24 10:05:53;;;;;;;0.40;0.40;;;17.10;41.80;;;17.38;27.27;95895.41;5033469;28;20220;-85
2022/03/24 10:08:21;;;;;;;0.50;0.50;;;17.20;41.50;;;17.47;27.58;95890.69;5017820;28;20206;-85
2022/03/24 10:10:48;;;;;;;0.40;0.40;;;17.20;41.80;;;17.55;27.01;95884.31;5001564;28;20263;-86
2022/03/24 10:13:53;;;;;;;0.50;0.50;;;17.30;41.80;;;17.67;26.89;95871.19;4998229;28;20224;-86
2022/03/24 10:16:40;;;;;;;0.43;0.43;;;17.40;40.80;;;17.77;26.54;95874.19;5014494;28;20231;-85
2022/03/24 10:19:16;;;;;;;0.40;0.40;;;17.50;40.90;;;17.86;26.89;95872.09;5007523;28;20479;-85
2022/03/24 10:21:50;;;;;;;0.50;0.50;;;17.60;41.00;;;17.97;26.54;95874.09;5005595;28;20220;-85
2022/03/24 10:24:21;;;;;;;0.40;0.40;;;17.60;40.60;;;18.07;26.34;95878.94;5022069;28;20225;-84
2022/03/24 10:26:59;;;;;;;0.40;0.40;;;17.70;41.00;;;18.15;26.22;95877.84;4990538;28;20185;-85
2022/03/24 10:29:28;;;;;;;0.47;0.47;;;17.80;41.10;;;18.13;26.49;95858.69;5020135;28;20216;-85
2022/03/24 10:32:05;;;;;;;0.50;0.50;;;17.90;40.90;;;18.27;26.25;95872.66;4998021;28;20564;-84
2022/03/24 10:34:41;;;;;;;0.40;0.40;;;17.90;40.10;;;18.31;25.99;95865.88;5016531;28;20216;-84